Time;durP1;ratioP1;P1;durP2;ratioP2;P2;SDS_P1;SDS_P2;PMS_P1;PMS_P2;Temp;Humidity;BMP_temperature;BMP_pressure;BME280_temperature;BME280_humidity;BME280_pressure;Samples;Min_cycle;Max_cycle;Signal;HPM_P1;HPM_P2
2023/12/04 09:08:36;;;;;;;17.93;9.50;;;;;;;-2.40;100.00;98870.72;5122092;27;20556;-83
2023/12/04 09:11:04;;;;;;;15.13;9.70;;;;;;;-1.74;100.00;98847.47;5087765;28;38538;-84
2023/12/04 09:13:33;;;;;;;14.23;9.03;;;;;;;-1.11;100.00;98846.50;5070890;28;42608;-83
2023/12/04 09:16:01;;;;;;;15.03;9.27;;;;;;;-0.46;92.49;98878.31;5070451;28;44793;-80
2023/12/04 09:18:28;;;;;;;15.73;9.57;;;;;;;-0.22;88.56;98868.34;5070671;28;41202;-79
2023/12/04 09:20:56;;;;;;;16.97;10.07;;;;;;;0.10;85.89;98873.78;5070710;28;38769;-79
2023/12/04 09:23:23;;;;;;;17.03;9.93;;;;;;;0.27;82.90;98871.66;5087310;28;41898;-82
2023/12/04 09:25:52;;;;;;;14.50;9.20;;;;;;;0.42;78.62;98893.06;5070193;28;43461;-81
2023/12/04 09:28:19;;;;;;;13.53;8.50;;;;;;;0.31;78.91;98852.50;5086981;28;42196;-83
2023/12/04 09:30:47;;;;;;;13.77;8.17;;;;;;;0.61;77.96;98897.03;5088829;28;41101;-80
2023/12/04 09:33:14;;;;;;;13.57;8.30;;;;;;;0.66;75.77;98905.56;5087076;28;41728;-81
2023/12/04 09:35:42;;;;;;;11.37;8.67;;;;;;;0.72;75.02;98900.25;5070582;28;43015;-80
2023/12/04 09:38:10;;;;;;;11.60;8.03;;;;;;;0.77;74.15;98900.97;5070003;28;41945;-84
2023/12/04 09:40:38;;;;;;;10.90;7.93;;;;;;;0.82;72.88;98898.28;5087712;28;40100;-83
2023/12/04 09:43:07;;;;;;;14.33;8.47;;;;;;;0.82;73.60;98870.47;5070296;28;42546;-81
2023/12/04 09:45:37;;;;;;;12.00;8.43;;;;;;;0.82;72.09;98865.25;5069746;28;41938;-81
2023/12/04 09:48:08;;;;;;;11.43;8.47;;;;;;;0.89;71.22;98866.81;5086728;28;42207;-79
2023/12/04 09:50:37;;;;;;;12.23;8.63;;;;;;;1.11;71.14;98888.03;5084073;28;40691;-80
2023/12/04 09:53:07;;;;;;;11.77;7.73;;;;;;;1.24;69.75;98883.34;5086753;28;42303;-81
2023/12/04 09:55:35;;;;;;;12.67;8.47;;;;;;;1.24;69.44;98836.41;5069855;28;42868;-82
2023/12/04 09:58:03;;;;;;;11.90;8.67;;;;;;;1.75;69.39;98840.25;5086656;28;43801;-84
2023/12/04 10:00:33;;;;;;;12.73;8.10;;;;;;;2.15;66.26;98867.88;5070393;28;40218;-84
2023/12/04 10:03:02;;;;;;;12.57;8.33;;;;;;;2.29;65.58;98847.44;5070004;28;40807;-81
2023/12/04 10:05:30;;;;;;;13.67;8.70;;;;;;;2.52;65.59;98829.31;5086817;28;43384;-87
2023/12/04 10:07:57;;;;;;;13.67;8.57;;;;;;;2.70;64.10;98834.88;5069319;28;42114;-87
2023/12/04 10:10:25;;;;;;;12.73;8.13;;;;;;;2.79;63.19;98834.56;5086319;28;41014;-82
2023/12/04 10:12:53;;;;;;;11.10;8.33;;;;;;;2.98;62.49;98830.47;5069679;28;42218;-81
2023/12/04 10:15:20;;;;;;;11.10;7.80;;;;;;;3.08;61.15;98833.66;5086129;28;43502;-81
2023/12/04 10:17:49;;;;;;;12.30;7.80;;;;;;;3.14;62.79;98784.59;5067813;28;41431;-81
2023/12/04 10:20:18;;;;;;;11.63;8.23;;;;;;;3.24;59.66;98785.97;5055963;28;38840;-84
2023/12/04 10:22:56;;;;;;;13.30;7.90;;;;;;;3.49;59.06;98772.88;5056440;28;40762;-88
2023/12/04 10:25:26;;;;;;;12.27;7.37;;;;;;;3.67;58.05;98787.09;5056457;28;42580;-89
2023/12/04 10:27:54;;;;;;;11.13;7.47;;;;;;;3.66;57.22;98772.31;5055825;28;41540;-85
2023/12/04 10:30:26;;;;;;;10.00;7.40;;;;;;;3.64;56.89;98776.72;5056436;28;40298;-91
2023/12/04 10:33:00;;;;;;;10.27;7.47;;;;;;;3.51;56.34;98785.94;5055928;28;40554;-87
2023/12/04 10:35:30;;;;;;;11.20;7.23;;;;;;;3.45;55.85;98791.41;5056169;28;42498;-87
2023/12/04 10:37:59;;;;;;;9.83;6.80;;;;;;;3.30;55.68;98781.44;5072629;28;42591;-85
2023/12/04 10:40:28;;;;;;;9.33;6.70;;;;;;;3.14;56.33;98760.19;5055801;28;38479;-88
2023/12/04 10:43:12;;;;;;;13.47;6.63;;;;;;;3.25;56.93;98769.38;5072781;28;42598;-86
2023/12/04 10:45:42;;;;;;;9.77;6.53;;;;;;;3.17;56.81;98766.16;5056247;28;43574;-84
2023/12/04 10:48:11;;;;;;;11.23;7.40;;;;;;;3.10;57.37;98766.41;5072213;28;43215;-84
2023/12/04 10:50:41;;;;;;;9.83;7.37;;;;;;;3.04;57.01;98767.50;5056031;28;39239;-86
2023/12/04 10:53:10;;;;;;;10.30;6.50;;;;;;;3.12;58.13;98765.47;5055577;28;41042;-79
2023/12/04 10:55:39;;;;;;;8.07;5.93;;;;;;;3.08;58.21;98753.41;5071871;28;43421;-82
2023/12/04 10:58:09;;;;;;;10.63;7.57;;;;;;;3.05;58.76;98748.28;5055437;28;41189;-85
2023/12/04 11:00:40;;;;;;;9.63;6.80;;;;;;;3.10;58.26;98758.56;5055627;28;39312;-85
2023/12/04 11:03:14;;;;;;;9.93;6.60;;;;;;;2.98;57.44;98751.97;5055196;28;40848;-83
2023/12/04 11:05:42;;;;;;;10.60;6.43;;;;;;;2.90;57.42;98743.56;5055445;28;41932;-87
2023/12/04 11:08:13;;;;;;;9.20;6.63;;;;;;;2.86;57.71;98744.56;5054932;28;41209;-85
2023/12/04 11:10:48;;;;;;;10.93;7.07;;;;;;;2.95;58.54;98759.97;5072525;28;39955;-87
2023/12/04 11:13:22;;;;;;;10.83;6.20;;;;;;;2.88;58.64;98745.34;5055402;28;42577;-86
2023/12/04 11:15:53;;;;;;;8.57;6.23;;;;;;;2.94;58.08;98753.03;5072195;28;42039;-82
2023/12/04 11:18:24;;;;;;;7.73;6.10;;;;;;;2.87;58.38;98738.41;5055248;28;42460;-86
2023/12/04 11:20:57;;;;;;;11.47;7.10;;;;;;;2.93;57.72;98740.84;5055582;28;40281;-86
2023/12/04 11:23:26;;;;;;;14.07;7.87;;;;;;;2.95;58.44;98743.41;5055141;28;42369;-87
2023/12/04 11:25:54;;;;;;;10.43;7.77;;;;;;;2.77;58.57;98703.88;5054638;28;42162;-80
2023/12/04 11:28:22;;;;;;;10.47;6.67;;;;;;;2.96;58.46;98727.66;5054589;28;42421;-82
2023/12/04 11:30:50;;;;;;;9.47;6.60;;;;;;;3.06;58.34;98751.75;5071019;28;40105;-81
2023/12/04 11:33:20;;;;;;;8.87;6.33;;;;;;;3.14;58.79;98761.03;5071155;28;43085;-80
2023/12/04 11:35:51;;;;;;;9.67;6.97;;;;;;;3.07;58.46;98749.09;5054601;28;42097;-81
2023/12/04 11:38:19;;;;;;;11.03;6.27;;;;;;;2.98;57.25;98753.75;5054382;28;41385;-82
2023/12/04 11:40:47;;;;;;;9.43;6.50;;;;;;;3.02;57.02;98771.91;5071768;28;39052;-82
2023/12/04 11:43:26;;;;;;;13.10;7.77;;;;;;;2.84;56.85;98738.53;5054296;28;42243;-81
2023/12/04 11:45:53;;;;;;;18.17;9.60;;;;;;;2.81;56.76;98749.09;5071446;28;42117;-83
2023/12/04 11:48:24;;;;;;;10.53;7.47;;;;;;;2.98;56.88;98759.84;5054117;28;41284;-83
2023/12/04 11:50:57;;;;;;;11.10;6.90;;;;;;;2.94;56.67;98732.09;5068651;28;40960;-82
2023/12/04 11:53:24;;;;;;;10.53;6.60;;;;;;;2.95;56.74;98722.50;5072332;28;42650;-83
2023/12/04 11:55:56;;;;;;;8.77;6.67;;;;;;;3.13;56.15;98742.78;5072228;28;42779;-83
2023/12/04 11:58:24;;;;;;;9.70;6.77;;;;;;;3.22;55.85;98748.53;5054307;28;42599;-82
2023/12/04 12:00:52;;;;;;;10.77;6.73;;;;;;;3.28;54.72;98760.56;5071659;28;40174;-81
2023/12/04 12:03:22;;;;;;;8.53;6.30;;;;;;;3.29;55.24;98743.09;5054012;28;40565;-82
2023/12/04 12:05:50;;;;;;;14.07;7.73;;;;;;;3.29;55.35;98735.25;5070810;28;43411;-84
2023/12/04 12:08:20;;;;;;;9.93;6.37;;;;;;;3.28;55.18;98715.22;5070651;28;42295;-84
2023/12/04 12:10:47;;;;;;;9.13;6.63;;;;;;;3.30;55.65;98695.09;5071228;28;40820;-83
2023/12/04 12:13:15;;;;;;;8.93;5.90;;;;;;;3.19;54.65;98685.00;5072332;28;42613;-83
2023/12/04 12:15:43;;;;;;;10.87;6.40;;;;;;;3.23;54.41;98687.44;5071131;28;41867;-84
2023/12/04 12:18:11;;;;;;;11.17;7.20;;;;;;;3.19;53.91;98714.66;5071049;28;42718;-84
2023/12/04 12:20:38;;;;;;;10.07;6.47;;;;;;;3.08;54.79;98710.69;5054012;28;42246;-84
2023/12/04 12:23:06;;;;;;;8.83;6.60;;;;;;;3.13;54.75;98716.59;5054360;28;41167;-84
2023/12/04 12:25:36;;;;;;;11.20;6.30;;;;;;;2.97;54.21;98713.66;5053537;28;42055;-83
2023/12/04 12:28:04;;;;;;;9.43;6.87;;;;;;;3.03;54.77;98731.78;5053459;28;44879;-81
2023/12/04 12:30:31;;;;;;;9.50;6.53;;;;;;;3.01;55.19;98728.34;5054076;28;38753;-83
2023/12/04 12:32:59;;;;;;;10.40;7.20;;;;;;;3.06;55.18;98715.97;5070622;28;41345;-83
2023/12/04 12:35:27;;;;;;;15.43;6.37;;;;;;;2.97;55.51;98689.28;5070931;28;42825;-80
2023/12/04 12:37:56;;;;;;;11.33;6.77;;;;;;;3.02;54.82;98696.06;5053837;28;42987;-85
2023/12/04 12:40:23;;;;;;;9.67;6.53;;;;;;;2.81;55.64;98678.50;5053946;28;39975;-90
2023/12/04 12:42:52;;;;;;;11.40;7.10;;;;;;;2.71;55.48;98651.81;5054016;28;42651;-84
2023/12/04 12:45:20;;;;;;;10.03;7.00;;;;;;;2.88;56.48;98669.50;5070343;28;43240;-85
2023/12/04 12:47:48;;;;;;;9.70;7.10;;;;;;;2.85;55.64;98665.25;5053257;28;41542;-86
2023/12/04 12:50:16;;;;;;;10.47;6.87;;;;;;;2.80;56.13;98655.88;5071414;28;38901;-82
2023/12/04 12:52:44;;;;;;;14.43;10.03;;;;;;;2.72;56.49;98626.53;5075839;28;41646;-83
2023/12/04 12:55:11;;;;;;;11.20;6.93;;;;;;;2.78;56.61;98626.28;5058474;28;43028;-82
2023/12/04 12:57:39;;;;;;;9.97;6.83;;;;;;;2.72;55.88;98626.53;5055386;28;41123;-82
2023/12/04 13:00:09;;;;;;;10.80;6.20;;;;;;;2.78;56.21;98635.00;5071083;28;40406;-82
2023/12/04 13:02:38;;;;;;;9.80;6.47;;;;;;;2.78;55.87;98621.06;5071181;28;41198;-81
2023/12/04 13:05:07;;;;;;;13.27;6.67;;;;;;;2.89;55.84;98613.69;5070415;28;41629;-82
2023/12/04 13:07:35;;;;;;;9.07;6.63;;;;;;;3.00;55.96;98595.84;5071020;28;41341;-92
2023/12/04 13:10:04;;;;;;;12.13;7.57;;;;;;;3.10;55.59;98584.13;5054517;28;40651;-89
2023/12/04 13:12:32;;;;;;;11.63;6.63;;;;;;;3.18;55.11;98579.50;5053636;28;41347;-88
2023/12/04 13:15:00;;;;;;;13.03;7.27;;;;;;;3.28;55.10;98587.00;5070694;28;42854;-87
2023/12/04 13:17:30;;;;;;;10.63;7.13;;;;;;;3.28;54.53;98579.13;5056278;28;41273;-90
2023/12/04 13:19:57;;;;;;;10.80;7.23;;;;;;;3.28;54.89;98576.53;5054317;28;40660;-88
2023/12/04 13:22:33;;;;;;;9.73;6.90;;;;;;;3.35;54.70;98575.38;5053946;28;41753;-92
2023/12/04 13:25:02;;;;;;;10.50;7.00;;;;;;;3.18;54.77;98553.31;5053831;28;45445;-89
2023/12/04 13:27:29;;;;;;;9.33;6.53;;;;;;;3.34;55.04;98552.75;5053380;28;41231;-87
2023/12/04 13:29:57;;;;;;;18.57;10.17;;;;;;;3.38;54.73;98551.69;5053820;28;39274;-90
2023/12/04 13:32:24;;;;;;;21.20;12.67;;;;;;;3.38;54.49;98536.00;5053686;28;41253;-91
2023/12/04 13:34:54;;;;;;;15.43;9.70;;;;;;;3.41;54.75;98530.66;5053503;28;43620;-88
2023/12/04 13:37:23;;;;;;;13.77;9.77;;;;;;;3.49;54.82;98536.44;5053009;28;41201;-88
2023/12/04 13:39:57;;;;;;;11.67;8.47;;;;;;;3.62;54.80;98540.28;5053968;28;38867;-89
2023/12/04 13:45:10;;;;;;;10.73;7.63;;;;;;;3.52;54.26;98534.56;5053554;28;43444;-87
2023/12/04 13:47:38;;;;;;;13.43;9.33;;;;;;;3.46;54.34;98534.78;5053422;28;43083;-88
2023/12/04 13:50:09;;;;;;;13.40;8.33;;;;;;;3.46;54.35;98541.81;5054571;28;39328;-88
2023/12/04 13:52:38;;;;;;;14.27;9.37;;;;;;;3.35;54.80;98533.50;5054152;28;43136;-87
2023/12/04 13:55:14;;;;;;;12.03;8.30;;;;;;;3.34;55.02;98526.59;5056490;28;42989;-85
2023/12/04 13:57:58;;;;;;;13.20;8.27;;;;;;;3.21;54.98;98521.78;5057372;28;41040;-83
2023/12/04 14:00:26;;;;;;;10.43;6.63;;;;;;;3.07;55.91;98491.84;5056607;28;39147;-84
2023/12/04 14:02:59;;;;;;;12.80;7.70;;;;;;;3.10;55.51;98503.03;5073106;28;41981;-82
2023/12/04 14:05:28;;;;;;;10.37;7.13;;;;;;;3.01;56.39;98508.63;5073205;28;43798;-81
2023/12/04 14:07:56;;;;;;;14.90;8.13;;;;;;;2.57;56.09;98438.84;5055772;28;42394;-81
2023/12/04 14:10:25;;;;;;;10.60;7.63;;;;;;;2.82;56.29;98487.56;5074011;28;40382;-80
2023/12/04 14:12:53;;;;;;;10.80;7.40;;;;;;;2.65;56.43;98483.84;5055989;28;40548;-81
2023/12/04 14:15:20;;;;;;;11.67;7.37;;;;;;;2.56;56.84;98479.81;5072966;28;43832;-80
2023/12/04 14:17:49;;;;;;;10.87;7.97;;;;;;;2.46;57.06;98484.53;5072546;28;43241;-83
2023/12/04 14:20:18;;;;;;;10.70;7.77;;;;;;;2.30;57.33;98472.06;5072994;28;39036;-87
2023/12/04 14:22:47;;;;;;;10.13;7.63;;;;;;;2.27;57.74;98470.41;5055846;28;40866;-83
2023/12/04 14:25:15;;;;;;;10.43;7.40;;;;;;;2.29;58.49;98463.34;5055766;28;44370;-85
2023/12/04 14:27:44;;;;;;;11.77;7.40;;;;;;;2.08;58.88;98438.00;5055975;28;41062;-84
2023/12/04 14:30:13;;;;;;;10.00;7.20;;;;;;;1.93;59.49;98435.91;5055916;28;39054;-84
2023/12/04 14:32:41;;;;;;;11.47;7.23;;;;;;;1.73;60.95;98427.00;5055650;28;40766;-85
2023/12/04 14:35:09;;;;;;;10.50;6.10;;;;;;;1.73;61.94;98426.16;5055674;28;42807;-82
2023/12/04 14:37:36;;;;;;;9.30;7.00;;;;;;;1.49;63.02;98396.50;5073011;28;43217;-82
2023/12/04 14:40:07;;;;;;;9.93;6.47;;;;;;;1.49;64.13;98396.50;5072542;28;39382;-86
2023/12/04 14:42:36;;;;;;;9.77;6.53;;;;;;;1.49;64.86;98393.91;5056172;28;40570;-81
2023/12/04 14:45:04;;;;;;;11.83;7.57;;;;;;;1.52;66.02;98387.72;5072275;28;43870;-81
2023/12/04 14:47:31;;;;;;;9.50;6.87;;;;;;;1.25;66.95;98339.94;5055951;28;42779;-82
2023/12/04 14:49:59;;;;;;;10.50;7.07;;;;;;;1.57;67.62;98396.28;5055143;28;39092;-80
2023/12/04 14:52:28;;;;;;;10.13;6.70;;;;;;;1.55;67.65;98378.06;5055909;28;42168;-82
2023/12/04 14:55:39;;;;;;;10.27;6.50;;;;;;;1.57;68.64;98375.41;5072036;28;43308;-80
2023/12/04 14:58:19;;;;;;;11.90;7.20;;;;;;;1.40;69.15;98352.47;5073031;28;42361;-80
